createdAt,value
2022-11-19T00:01:27.995Z,13.80
2022-11-19T00:03:55.388Z,13.18
2022-11-19T00:06:27.572Z,12.73
2022-11-19T00:08:55.517Z,13.45
2022-11-19T00:11:44.165Z,15.82
2022-11-19T00:14:13.420Z,13.43
2022-11-19T00:16:41.456Z,14.52
2022-11-19T00:19:10.372Z,13.50
2022-11-19T00:21:37.525Z,12.93
2022-11-19T00:24:05.116Z,13.13
2022-11-19T00:26:32.155Z,12.15
2022-11-19T00:28:59.227Z,12.13
2022-11-19T00:31:26.225Z,12.32
2022-11-19T00:33:54.678Z,11.80
2022-11-19T00:36:23.165Z,11.85
2022-11-19T00:38:50.390Z,14.65
2022-11-19T00:41:17.530Z,13.65
2022-11-19T00:43:47.501Z,12.73
2022-11-19T00:46:15.768Z,13.57
2022-11-19T00:48:43.413Z,12.38
2022-11-19T00:51:11.586Z,12.00
2022-11-19T00:53:44.363Z,11.43
2022-11-19T00:56:15.554Z,11.38
2022-11-19T00:58:43.719Z,12.63
2022-11-19T01:01:11.583Z,11.57
2022-11-19T01:03:41.201Z,12.30
2022-11-19T01:06:14.248Z,13.73
2022-11-19T01:08:45.802Z,14.85
2022-11-19T01:11:16.206Z,12.73
2022-11-19T01:13:43.328Z,14.35
2022-11-19T01:16:13.988Z,13.05
2022-11-19T01:18:42.380Z,12.57
2022-11-19T01:21:11.731Z,15.52
2022-11-19T01:23:40.075Z,13.82
2022-11-19T01:26:07.986Z,14.80
2022-11-19T01:28:35.254Z,14.85
2022-11-19T01:31:11.179Z,14.98
2022-11-19T01:33:38.780Z,14.80
2022-11-19T01:36:08.687Z,15.55
2022-11-19T01:38:35.630Z,13.43
2022-11-19T01:41:02.649Z,13.77
2022-11-19T01:43:49.589Z,13.95
2022-11-19T01:46:21.757Z,13.98
2022-11-19T01:49:04.173Z,15.77
2022-11-19T01:51:36.668Z,15.55
2022-11-19T01:54:26.416Z,15.05
2022-11-19T01:56:55.901Z,14.85
2022-11-19T01:59:23.682Z,14.57
2022-11-19T02:01:51.354Z,15.18
2022-11-19T02:04:20.584Z,14.82
2022-11-19T02:06:48.279Z,14.10
2022-11-19T02:09:15.417Z,16.23
2022-11-19T02:12:01.116Z,14.45
2022-11-19T02:14:56.435Z,14.05
2022-11-19T02:17:32.206Z,13.75
2022-11-19T02:20:17.277Z,13.57
2022-11-19T02:23:03.045Z,13.32
2022-11-19T02:25:39.418Z,13.75
2022-11-19T02:28:37.194Z,13.80
2022-11-19T02:31:15.158Z,12.95
2022-11-19T02:33:57.875Z,14.93
2022-11-19T02:36:47.403Z,13.95
2022-11-19T02:39:31.062Z,13.73
2022-11-19T02:42:13.488Z,12.75
2022-11-19T02:45:06.753Z,12.35
2022-11-19T02:47:56.837Z,12.93
2022-11-19T02:50:55.930Z,12.73
2022-11-19T02:53:23.881Z,9.70
2022-11-19T02:56:09.371Z,9.18
2022-11-19T02:59:00.445Z,8.80
2022-11-19T03:01:48.980Z,9.30
2022-11-19T03:04:31.062Z,8.95
2022-11-19T03:07:08.555Z,9.15
2022-11-19T03:09:40.523Z,9.93
2022-11-19T03:12:36.795Z,11.18
2022-11-19T03:15:48.722Z,10.60
2022-11-19T03:18:37.267Z,10.43
2022-11-19T03:21:15.239Z,11.75
2022-11-19T03:24:06.988Z,12.77
2022-11-19T03:29:10.478Z,12.85
2022-11-19T03:31:40.855Z,12.77
2022-11-19T03:34:16.782Z,11.32
2022-11-19T03:36:46.138Z,12.73
2022-11-19T03:39:18.658Z,10.73
2022-11-19T03:41:49.800Z,11.50
2022-11-19T03:44:38.790Z,12.35
2022-11-19T03:47:12.073Z,10.98
2022-11-19T03:49:43.198Z,13.07
2022-11-19T03:52:19.690Z,11.82
2022-11-19T03:54:46.723Z,11.07
2022-11-19T03:57:17.383Z,11.75
2022-11-19T03:59:45.065Z,10.93
2022-11-19T04:02:13.854Z,9.88
2022-11-19T04:04:40.945Z,9.80
2022-11-19T04:07:14.596Z,9.90
2022-11-19T04:09:42.540Z,8.77
2022-11-19T04:12:16.767Z,10.00
2022-11-19T04:14:43.942Z,10.30
2022-11-19T04:17:11.211Z,9.13
2022-11-19T04:19:38.183Z,8.45
2022-11-19T04:22:05.219Z,8.55
2022-11-19T04:24:32.250Z,8.63
2022-11-19T04:26:59.245Z,8.07
2022-11-19T04:29:26.181Z,8.45
2022-11-19T04:31:53.188Z,9.07
2022-11-19T04:34:20.213Z,8.60
2022-11-19T04:36:47.215Z,10.10
2022-11-19T04:39:14.143Z,9.05
2022-11-19T04:41:41.493Z,8.00
2022-11-19T04:44:08.455Z,8.75
2022-11-19T04:46:35.413Z,8.18
2022-11-19T04:49:02.371Z,8.20
2022-11-19T04:51:29.342Z,7.63
2022-11-19T04:53:56.359Z,7.43
2022-11-19T04:56:23.337Z,8.00
2022-11-19T04:58:50.317Z,7.30
2022-11-19T05:01:17.329Z,6.88
2022-11-19T05:03:44.280Z,7.13
2022-11-19T05:06:11.320Z,7.80
2022-11-19T05:08:38.225Z,7.82
2022-11-19T05:11:05.395Z,8.45
2022-11-19T05:13:32.377Z,7.10
2022-11-19T05:15:59.327Z,8.32
2022-11-19T05:18:26.262Z,7.60
2022-11-19T05:20:53.305Z,7.53
2022-11-19T05:23:20.631Z,7.85
2022-11-19T05:25:47.760Z,8.80
2022-11-19T05:28:14.761Z,8.05
2022-11-19T05:30:41.751Z,7.75
2022-11-19T05:33:08.954Z,7.40
2022-11-19T05:35:36.374Z,8.20
2022-11-19T05:38:03.461Z,7.72
2022-11-19T05:40:30.391Z,7.63
2022-11-19T05:42:57.316Z,7.15
2022-11-19T05:45:24.330Z,7.63
2022-11-19T05:47:55.019Z,7.05
2022-11-19T05:50:22.267Z,7.43
2022-11-19T05:52:50.630Z,8.00
2022-11-19T05:55:17.596Z,7.93
2022-11-19T05:57:44.544Z,7.90
2022-11-19T06:00:12.182Z,9.55
2022-11-19T06:02:41.821Z,9.05
2022-11-19T06:05:09.459Z,8.77
2022-11-19T06:07:36.439Z,8.63
2022-11-19T06:10:03.608Z,8.82
2022-11-19T06:12:30.558Z,9.82
2022-11-19T06:14:57.591Z,8.65
2022-11-19T06:17:24.498Z,8.65
2022-11-19T06:19:51.773Z,8.63
2022-11-19T06:22:18.738Z,8.95
2022-11-19T06:24:45.716Z,8.32
2022-11-19T06:27:12.693Z,9.43
2022-11-19T06:29:39.625Z,8.90
2022-11-19T06:32:06.562Z,8.75
2022-11-19T06:34:33.580Z,8.70
2022-11-19T06:37:00.534Z,7.97
2022-11-19T06:39:27.467Z,8.85
2022-11-19T06:41:54.466Z,8.23
2022-11-19T06:44:21.420Z,8.35
2022-11-19T06:46:48.380Z,8.93
2022-11-19T06:49:19.905Z,10.48
2022-11-19T06:51:47.212Z,11.68
2022-11-19T06:54:14.242Z,10.70
2022-11-19T06:56:41.249Z,13.05
2022-11-19T06:59:08.170Z,12.95
2022-11-19T07:01:35.198Z,13.90
2022-11-19T07:04:02.160Z,13.35
2022-11-19T07:06:29.086Z,13.15
2022-11-19T07:08:56.034Z,14.77
2022-11-19T07:11:28.751Z,13.68
2022-11-19T07:13:57.685Z,12.65
2022-11-19T07:16:26.544Z,13.80
2022-11-19T07:18:53.484Z,13.30
2022-11-19T07:21:20.556Z,14.05
2022-11-19T07:23:47.491Z,14.02
2022-11-19T07:26:14.903Z,13.40
2022-11-19T07:28:42.553Z,14.80
2022-11-19T07:31:09.721Z,13.68
2022-11-19T07:33:39.216Z,14.50
2022-11-19T07:36:09.317Z,14.07
2022-11-19T07:38:39.162Z,15.50
2022-11-19T07:41:26.824Z,14.93
2022-11-19T07:43:54.142Z,14.70
2022-11-19T07:46:21.168Z,14.77
2022-11-19T07:48:48.139Z,16.20
2022-11-19T07:51:15.085Z,17.73
2022-11-19T07:53:42.881Z,17.65
2022-11-19T07:56:09.893Z,18.98
2022-11-19T07:58:36.873Z,18.63
2022-11-19T08:01:11.898Z,17.75
2022-11-19T08:03:39.029Z,18.88
2022-11-19T08:06:06.849Z,19.38
2022-11-19T08:08:34.020Z,19.27
2022-11-19T08:11:09.107Z,17.73
2022-11-19T08:13:36.892Z,18.60
2022-11-19T08:16:05.595Z,21.65
2022-11-19T08:18:32.727Z,18.58
2022-11-19T08:21:09.172Z,20.20
2022-11-19T08:23:37.251Z,19.70
2022-11-19T08:26:06.889Z,19.67
2022-11-19T08:28:33.919Z,22.83
2022-11-19T08:31:08.533Z,18.75
2022-11-19T08:33:36.297Z,19.45
2022-11-19T08:36:03.880Z,23.40
2022-11-19T08:38:34.599Z,23.40
2022-11-19T08:41:23.926Z,24.67
2022-11-19T08:43:50.893Z,21.50
2022-11-19T08:46:17.861Z,21.95
2022-11-19T08:48:44.864Z,22.75
2022-11-19T08:51:14.781Z,23.80
2022-11-19T08:53:42.038Z,24.17
2022-11-19T08:56:17.885Z,23.73
2022-11-19T08:58:45.346Z,24.23
2022-11-19T09:01:15.096Z,24.50
2022-11-19T09:03:42.308Z,25.85
2022-11-19T09:06:09.658Z,26.48
2022-11-19T09:08:36.658Z,27.83
2022-11-19T09:11:08.875Z,27.38
2022-11-19T09:13:36.365Z,29.52
2022-11-19T09:16:03.800Z,26.45
2022-11-19T09:18:32.649Z,28.98
2022-11-19T09:20:59.980Z,27.67
2022-11-19T09:23:27.602Z,29.00
2022-11-19T09:25:59.293Z,26.10
2022-11-19T09:28:27.627Z,25.35
2022-11-19T09:30:59.115Z,25.15
2022-11-19T09:35:53.565Z,29.33
2022-11-19T09:38:20.918Z,29.85
2022-11-19T09:40:52.773Z,28.77
2022-11-19T09:43:41.422Z,30.35
2022-11-19T09:46:24.446Z,26.90
2022-11-19T09:48:55.760Z,27.17
2022-11-19T09:51:29.955Z,29.60
2022-11-19T09:54:05.814Z,28.80
2022-11-19T09:56:39.026Z,24.52
2022-11-19T09:59:25.123Z,26.08
2022-11-19T10:01:53.239Z,25.65
2022-11-19T10:04:26.767Z,24.80
2022-11-19T10:07:30.417Z,26.17
2022-11-19T10:10:20.992Z,26.08
2022-11-19T10:12:50.818Z,25.40
2022-11-19T10:15:27.043Z,22.73
2022-11-19T10:17:58.060Z,25.48
2022-11-19T10:20:55.101Z,26.63
2022-11-19T10:23:40.814Z,25.48
2022-11-19T10:26:13.318Z,25.30
2022-11-19T10:28:43.820Z,24.55
2022-11-19T10:31:36.984Z,25.20
2022-11-19T10:34:15.436Z,20.65
2022-11-19T10:37:07.573Z,21.63
2022-11-19T10:39:51.748Z,24.67
2022-11-19T10:42:30.232Z,19.33
2022-11-19T10:45:03.191Z,18.98
2022-11-19T10:48:09.556Z,21.23
2022-11-19T10:50:37.009Z,18.17
2022-11-19T10:53:29.280Z,18.58
2022-11-19T10:56:06.515Z,20.70
2022-11-19T10:58:42.775Z,19.80
2022-11-19T11:01:34.937Z,16.77
2022-11-19T11:04:13.204Z,18.00
2022-11-19T11:07:01.327Z,15.30
2022-11-19T11:09:34.364Z,17.55
2022-11-19T11:12:35.171Z,16.33
2022-11-19T11:15:18.994Z,15.40
2022-11-19T11:17:49.559Z,17.13
2022-11-19T11:20:17.137Z,16.95
2022-11-19T11:22:49.904Z,15.30
2022-11-19T11:25:26.257Z,18.00
2022-11-19T11:28:06.866Z,16.75
2022-11-19T11:30:34.757Z,17.50
2022-11-19T11:33:40.068Z,18.70
2022-11-19T11:36:16.332Z,16.70
2022-11-19T11:38:46.144Z,15.52
2022-11-19T11:44:05.855Z,15.35
2022-11-19T11:46:57.232Z,15.52
2022-11-19T11:49:28.693Z,17.42
2022-11-19T11:54:25.186Z,14.05
2022-11-19T11:56:52.132Z,12.73
2022-11-19T11:59:29.912Z,14.02
2022-11-19T12:02:02.172Z,14.05
2022-11-19T12:04:29.712Z,11.25
2022-11-19T12:07:12.063Z,12.45
2022-11-19T12:09:48.511Z,14.45
2022-11-19T12:12:26.290Z,13.23
2022-11-19T12:15:43.229Z,11.73
2022-11-19T12:18:32.302Z,11.70
2022-11-19T12:21:06.338Z,11.95
2022-11-19T12:24:04.130Z,11.15
2022-11-19T12:26:45.862Z,13.27
2022-11-19T12:29:58.022Z,12.05
2022-11-19T12:32:42.019Z,11.68
2022-11-19T12:35:33.613Z,12.10
2022-11-19T12:40:46.117Z,10.10
2022-11-19T12:43:45.042Z,12.18
2022-11-19T12:46:46.912Z,12.50
2022-11-19T12:49:32.206Z,12.07
2022-11-19T12:52:11.088Z,12.52
2022-11-19T12:55:27.817Z,11.77
2022-11-19T12:58:12.464Z,11.45
2022-11-19T13:00:45.561Z,11.02
2022-11-19T13:03:25.055Z,11.55
2022-11-19T13:06:02.736Z,11.75
2022-11-19T13:08:43.695Z,12.13
2022-11-19T13:11:22.783Z,10.68
2022-11-19T13:13:58.678Z,12.68
2022-11-19T13:16:28.678Z,10.70
2022-11-19T13:19:23.276Z,9.85
2022-11-19T13:21:58.790Z,10.10
2022-11-19T13:24:35.284Z,10.57
2022-11-19T13:27:05.339Z,9.65
2022-11-19T13:30:02.767Z,9.57
2022-11-19T13:32:42.573Z,9.45
2022-11-19T13:35:16.870Z,10.88
2022-11-19T13:38:08.598Z,9.88
2022-11-19T13:43:37.232Z,11.15
2022-11-19T13:49:02.602Z,10.13
2022-11-19T13:51:33.771Z,11.07
2022-11-19T13:54:03.771Z,17.75
2022-11-19T13:56:43.856Z,11.63
2022-11-19T13:59:36.984Z,10.25
2022-11-19T14:02:18.748Z,9.82
2022-11-19T14:05:15.747Z,10.55
2022-11-19T14:07:51.576Z,10.05
2022-11-19T14:10:32.866Z,11.15
2022-11-19T14:13:08.836Z,10.82
2022-11-19T14:16:21.677Z,10.15
2022-11-19T14:19:30.067Z,10.43
2022-11-19T14:22:17.102Z,10.27
2022-11-19T14:25:02.620Z,10.18
2022-11-19T14:27:29.508Z,12.68
2022-11-19T14:30:07.113Z,11.65
2022-11-19T14:32:46.431Z,12.43
2022-11-19T14:35:23.051Z,11.82
2022-11-19T14:37:54.034Z,12.05
2022-11-19T14:40:21.385Z,12.40
2022-11-19T14:43:19.133Z,12.07
2022-11-19T14:46:09.221Z,11.95
2022-11-19T14:48:51.904Z,11.00
2022-11-19T14:51:28.350Z,11.55
2022-11-19T14:54:08.159Z,14.00
2022-11-19T14:56:38.043Z,12.70
2022-11-19T14:59:22.084Z,13.88
2022-11-19T15:02:03.705Z,14.18
2022-11-19T15:04:42.164Z,12.25
2022-11-19T15:07:12.512Z,13.20
2022-11-19T15:10:10.477Z,14.27
2022-11-19T15:12:43.418Z,11.50
2022-11-19T15:15:19.580Z,11.88
2022-11-19T15:18:02.503Z,11.75
2022-11-19T15:20:47.931Z,11.93
2022-11-19T15:23:24.292Z,12.40
2022-11-19T15:25:57.372Z,11.75
2022-11-19T15:28:24.770Z,11.55
2022-11-19T15:31:09.254Z,15.30
2022-11-19T15:33:39.773Z,14.00
2022-11-19T15:36:58.032Z,14.47
2022-11-19T15:39:39.510Z,14.63
2022-11-19T15:42:15.441Z,14.25
2022-11-19T15:44:46.470Z,13.50
2022-11-19T15:47:25.702Z,15.00
2022-11-19T15:49:53.801Z,15.25
2022-11-19T15:52:27.791Z,15.43
2022-11-19T15:55:19.866Z,15.80
2022-11-19T15:57:50.218Z,13.40
2022-11-19T16:00:22.811Z,14.15
2022-11-19T16:02:51.570Z,13.32
2022-11-19T16:05:21.828Z,15.65
2022-11-19T16:07:49.895Z,14.02
2022-11-19T16:10:31.017Z,13.80
2022-11-19T16:13:37.264Z,15.20
2022-11-19T16:16:23.565Z,14.93
2022-11-19T16:18:52.439Z,15.20
2022-11-19T16:21:29.760Z,15.68
2022-11-19T16:24:15.944Z,16.38
2022-11-19T16:26:44.382Z,16.85
2022-11-19T16:29:22.147Z,16.73
2022-11-19T16:31:56.861Z,16.30
2022-11-19T16:34:30.180Z,18.00
2022-11-19T16:36:57.592Z,18.02
2022-11-19T16:39:27.647Z,16.00
2022-11-19T16:42:18.774Z,16.63
2022-11-19T16:44:50.576Z,17.15
2022-11-19T16:47:29.831Z,18.33
2022-11-19T16:50:08.084Z,16.60
2022-11-19T16:52:40.616Z,16.25
2022-11-19T16:55:28.951Z,19.13
2022-11-19T16:58:00.533Z,18.65
2022-11-19T17:00:36.246Z,17.80
2022-11-19T17:03:21.839Z,16.00
2022-11-19T17:05:52.107Z,17.40
2022-11-19T17:08:30.117Z,17.63
2022-11-19T17:11:36.783Z,15.77
2022-11-19T17:14:20.091Z,15.63
2022-11-19T17:16:53.043Z,16.42
2022-11-19T17:19:31.873Z,16.17
2022-11-19T17:22:04.015Z,14.23
2022-11-19T17:24:34.697Z,15.32
2022-11-19T17:27:02.312Z,14.70
2022-11-19T17:29:29.604Z,14.93
2022-11-19T17:31:57.054Z,16.02
2022-11-19T17:34:30.695Z,16.25
2022-11-19T17:36:58.312Z,16.58
2022-11-19T17:39:27.013Z,15.57
2022-11-19T17:42:13.969Z,14.98
2022-11-19T17:44:42.219Z,14.90
2022-11-19T17:47:22.888Z,16.13
2022-11-19T17:49:51.844Z,18.23
2022-11-19T17:52:21.613Z,19.33
2022-11-19T17:54:51.387Z,17.73
2022-11-19T17:57:18.557Z,13.43
2022-11-19T17:59:45.981Z,14.52
2022-11-19T18:02:15.750Z,12.85
2022-11-19T18:04:44.458Z,10.57
2022-11-19T18:07:15.199Z,11.82
2022-11-19T18:09:43.235Z,12.68
2022-11-19T18:12:17.133Z,13.00
2022-11-19T18:14:46.459Z,12.18
2022-11-19T18:17:16.159Z,12.90
2022-11-19T18:19:43.666Z,12.75
2022-11-19T18:22:18.486Z,12.90
2022-11-19T18:24:50.317Z,13.13
2022-11-19T18:27:18.252Z,13.48
2022-11-19T18:29:46.558Z,12.57
2022-11-19T18:32:16.902Z,11.43
2022-11-19T18:34:45.765Z,11.37
2022-11-19T18:37:13.532Z,13.45
2022-11-19T18:39:41.048Z,12.18
2022-11-19T18:42:12.281Z,12.95
2022-11-19T18:44:43.831Z,14.05
2022-11-19T18:47:14.041Z,14.02
2022-11-19T18:49:42.844Z,14.65
2022-11-19T18:52:16.399Z,16.13
2022-11-19T18:54:44.364Z,15.18
2022-11-19T18:57:13.283Z,14.70
2022-11-19T18:59:41.797Z,13.77
2022-11-19T19:02:10.913Z,13.77
2022-11-19T19:04:38.686Z,13.07
2022-11-19T19:07:06.632Z,13.02
2022-11-19T19:09:34.318Z,11.63
2022-11-19T19:12:20.945Z,12.02
2022-11-19T19:14:51.786Z,11.63
2022-11-19T19:17:20.062Z,13.10
2022-11-19T19:19:47.910Z,12.15
2022-11-19T19:22:15.922Z,13.63
2022-11-19T19:24:43.332Z,12.27
2022-11-19T19:27:11.249Z,13.07
2022-11-19T19:29:40.130Z,13.18
2022-11-19T19:32:09.746Z,12.18
2022-11-19T19:34:38.377Z,13.35
2022-11-19T19:37:07.679Z,13.05
2022-11-19T19:39:36.111Z,14.18
2022-11-19T19:42:03.338Z,12.93
2022-11-19T19:44:30.982Z,12.27
2022-11-19T19:46:59.373Z,15.15
2022-11-19T19:49:27.395Z,17.80
2022-11-19T19:52:51.570Z,13.60
2022-11-19T19:55:27.421Z,12.52
2022-11-19T19:57:57.805Z,11.30
2022-11-19T20:00:31.688Z,12.05
2022-11-19T20:03:04.057Z,11.02
2022-11-19T20:06:07.223Z,11.52
2022-11-19T20:09:21.017Z,9.32
2022-11-19T20:13:07.148Z,9.93
2022-11-19T20:16:05.520Z,10.50
2022-11-19T20:18:49.158Z,9.13
2022-11-19T20:22:24.129Z,9.25
2022-11-19T20:25:51.421Z,9.52
2022-11-19T20:29:42.709Z,8.48
2022-11-19T20:35:46.183Z,8.48
2022-11-19T20:38:50.642Z,8.00
2022-11-19T20:45:30.250Z,10.73
2022-11-19T20:52:11.211Z,8.57
2022-11-19T20:55:06.566Z,8.80
2022-11-19T20:58:09.690Z,8.07
2022-11-19T21:01:31.646Z,9.38
2022-11-19T21:04:40.533Z,9.70
2022-11-19T21:13:51.164Z,9.40
2022-11-19T21:16:38.123Z,10.55
2022-11-19T21:25:41.048Z,11.38
2022-11-19T21:28:42.568Z,11.75
2022-11-19T21:32:12.806Z,11.52
2022-11-19T21:34:41.883Z,12.95
2022-11-19T21:37:33.797Z,13.75
2022-11-19T21:40:40.789Z,13.77
2022-11-19T21:43:27.157Z,14.25
2022-11-19T21:46:43.834Z,14.32
2022-11-19T21:49:34.294Z,14.77
2022-11-19T21:52:13.260Z,15.18
2022-11-19T21:55:05.882Z,16.27
2022-11-19T21:58:05.530Z,15.43
2022-11-19T22:00:56.441Z,15.05
2022-11-19T22:03:58.693Z,15.10
2022-11-19T22:07:20.752Z,15.40
2022-11-19T22:10:01.670Z,15.27
2022-11-19T22:16:01.092Z,15.32
2022-11-19T22:18:48.927Z,16.05
2022-11-19T22:21:42.509Z,16.40
2022-11-19T22:27:23.003Z,16.92
2022-11-19T22:30:28.121Z,17.10
2022-11-19T22:33:12.846Z,17.50
2022-11-19T22:39:02.803Z,17.30
2022-11-19T22:42:10.665Z,18.88
2022-11-19T22:48:28.461Z,18.63
2022-11-19T22:51:39.439Z,18.75
2022-11-19T22:57:37.489Z,19.25
2022-11-19T23:00:21.229Z,21.83
2022-11-19T23:03:53.591Z,21.25
2022-11-19T23:06:31.247Z,21.50
2022-11-19T23:09:39.971Z,21.98
2022-11-19T23:13:20.660Z,19.73
2022-11-19T23:16:41.559Z,21.98
2022-11-19T23:19:42.224Z,21.45
2022-11-19T23:22:43.395Z,21.13
2022-11-19T23:25:34.139Z,20.85
2022-11-19T23:31:24.367Z,20.20
2022-11-19T23:34:30.014Z,21.05
2022-11-19T23:39:00.855Z,22.73
2022-11-19T23:41:42.717Z,20.02
2022-11-19T23:45:01.267Z,21.80
2022-11-19T23:47:47.420Z,20.90
2022-11-19T23:54:16.423Z,20.48
2022-11-19T23:57:04.778Z,18.73
2022-11-19T23:59:59.325Z,22.13
